sensor_id;sensor_type;location;lat;lon;timestamp;pressure;altitude;pressure_sealevel;temperature;humidity
62524;BME280;53689;56.878;60.672;2022-12-18T00:01:47;99409.19;;;21.09;21.14
62524;BME280;53689;56.878;60.672;2022-12-18T00:04:19;99404.63;;;21.10;21.32
62524;BME280;53689;56.878;60.672;2022-12-18T00:06:47;99413.41;;;21.12;21.61
62524;BME280;53689;56.878;60.672;2022-12-18T00:09:15;99413.22;;;21.13;21.00
62524;BME280;53689;56.878;60.672;2022-12-18T00:11:43;99413.06;;;21.15;21.11
62524;BME280;53689;56.878;60.672;2022-12-18T00:14:11;99412.72;;;21.18;21.49
62524;BME280;53689;56.878;60.672;2022-12-18T00:16:42;99403.97;;;21.16;21.17
62524;BME280;53689;56.878;60.672;2022-12-18T00:19:11;99408.69;;;21.22;21.80
62524;BME280;53689;56.878;60.672;2022-12-18T00:21:42;99408.19;;;21.18;21.25
62524;BME280;53689;56.878;60.672;2022-12-18T00:24:10;99420.63;;;21.19;20.88
62524;BME280;53689;56.878;60.672;2022-12-18T00:26:38;99414.09;;;21.22;21.64
62524;BME280;53689;56.878;60.672;2022-12-18T00:29:09;99410.38;;;21.23;21.54
62524;BME280;53689;56.878;60.672;2022-12-18T00:31:39;99416.28;;;21.27;21.18
62524;BME280;53689;56.878;60.672;2022-12-18T00:34:06;99418.97;;;21.27;21.02
62524;BME280;53689;56.878;60.672;2022-12-18T00:36:41;99421.47;;;21.28;20.62
62524;BME280;53689;56.878;60.672;2022-12-18T00:39:10;99421.16;;;21.23;20.48
62524;BME280;53689;56.878;60.672;2022-12-18T00:41:38;99424.34;;;21.35;21.04
62524;BME280;53689;56.878;60.672;2022-12-18T00:44:06;99418.28;;;21.33;21.61
62524;BME280;53689;56.878;60.672;2022-12-18T00:46:34;99420.66;;;21.36;20.66
62524;BME280;53689;56.878;60.672;2022-12-18T00:49:02;99418.97;;;21.27;21.07
62524;BME280;53689;56.878;60.672;2022-12-18T00:51:29;99415.25;;;21.28;21.54
62524;BME280;53689;56.878;60.672;2022-12-18T00:53:58;99406.84;;;21.31;20.92
62524;BME280;53689;56.878;60.672;2022-12-18T00:56:26;99402.09;;;21.33;21.19
62524;BME280;53689;56.878;60.672;2022-12-18T00:58:54;99407.00;;;21.38;20.83
62524;BME280;53689;56.878;60.672;2022-12-18T01:01:22;99394.88;;;21.33;21.01
62524;BME280;53689;56.878;60.672;2022-12-18T01:03:49;99389.50;;;21.25;21.44
62524;BME280;53689;56.878;60.672;2022-12-18T01:06:17;99384.47;;;21.30;20.60
62524;BME280;53689;56.878;60.672;2022-12-18T01:08:44;99383.59;;;21.38;21.66
62524;BME280;53689;56.878;60.672;2022-12-18T01:11:20;99373.34;;;21.33;21.17
62524;BME280;53689;56.878;60.672;2022-12-18T01:13:48;99373.84;;;21.29;20.65
62524;BME280;53689;56.878;60.672;2022-12-18T01:16:16;99366.78;;;21.28;20.93
62524;BME280;53689;56.878;60.672;2022-12-18T01:18:44;99366.13;;;21.26;20.93
62524;BME280;53689;56.878;60.672;2022-12-18T01:21:14;99363.72;;;21.23;21.41
62524;BME280;53689;56.878;60.672;2022-12-18T01:23:44;99356.16;;;21.34;21.53
62524;BME280;53689;56.878;60.672;2022-12-18T01:26:15;99359.88;;;21.33;21.16
62524;BME280;53689;56.878;60.672;2022-12-18T01:28:43;99352.97;;;21.23;20.79
62524;BME280;53689;56.878;60.672;2022-12-18T01:31:13;99346.56;;;21.32;20.78
62524;BME280;53689;56.878;60.672;2022-12-18T01:33:40;99346.25;;;21.27;21.14
62524;BME280;53689;56.878;60.672;2022-12-18T01:36:14;99345.22;;;21.36;20.84
62524;BME280;53689;56.878;60.672;2022-12-18T01:38:43;99344.22;;;21.29;21.09
62524;BME280;53689;56.878;60.672;2022-12-18T01:41:10;99346.41;;;21.33;21.26
62524;BME280;53689;56.878;60.672;2022-12-18T01:43:49;99336.44;;;21.34;22.05
62524;BME280;53689;56.878;60.672;2022-12-18T01:46:17;99335.47;;;21.35;21.07
62524;BME280;53689;56.878;60.672;2022-12-18T01:48:47;99331.25;;;21.32;21.45
62524;BME280;53689;56.878;60.672;2022-12-18T01:51:16;99326.38;;;21.36;21.72
62524;BME280;53689;56.878;60.672;2022-12-18T01:53:44;99314.91;;;21.34;20.74
62524;BME280;53689;56.878;60.672;2022-12-18T01:56:15;99312.38;;;21.41;21.17
62524;BME280;53689;56.878;60.672;2022-12-18T01:58:50;99315.91;;;21.33;21.26
62524;BME280;53689;56.878;60.672;2022-12-18T02:01:20;99306.50;;;21.37;21.13
62524;BME280;53689;56.878;60.672;2022-12-18T02:03:49;99313.41;;;21.31;20.64
62524;BME280;53689;56.878;60.672;2022-12-18T02:06:20;99319.97;;;21.37;20.95
62524;BME280;53689;56.878;60.672;2022-12-18T02:09:03;99311.22;;;21.35;20.64
62524;BME280;53689;56.878;60.672;2022-12-18T02:11:42;99303.13;;;21.35;21.29
62524;BME280;53689;56.878;60.672;2022-12-18T02:14:20;99299.59;;;21.34;21.36
62524;BME280;53689;56.878;60.672;2022-12-18T02:16:59;99304.63;;;21.29;21.66
62524;BME280;53689;56.878;60.672;2022-12-18T02:19:40;99293.34;;;21.34;21.19
62524;BME280;53689;56.878;60.672;2022-12-18T02:22:24;99287.13;;;21.33;20.50
62524;BME280;53689;56.878;60.672;2022-12-18T02:25:01;99278.91;;;21.35;21.01
62524;BME280;53689;56.878;60.672;2022-12-18T02:27:34;99273.66;;;21.42;21.87
62524;BME280;53689;56.878;60.672;2022-12-18T02:30:05;99275.00;;;21.38;21.04
62524;BME280;53689;56.878;60.672;2022-12-18T02:32:36;99282.25;;;21.37;20.99
62524;BME280;53689;56.878;60.672;2022-12-18T02:35:07;99277.69;;;21.38;21.05
62524;BME280;53689;56.878;60.672;2022-12-18T02:37:39;99278.69;;;21.45;21.83
62524;BME280;53689;56.878;60.672;2022-12-18T02:40:09;99285.09;;;21.44;21.03
62524;BME280;53689;56.878;60.672;2022-12-18T02:42:40;99290.31;;;21.45;21.02
62524;BME280;53689;56.878;60.672;2022-12-18T02:45:10;99285.25;;;21.42;20.62
62524;BME280;53689;56.878;60.672;2022-12-18T02:47:40;99271.28;;;21.47;21.39
62524;BME280;53689;56.878;60.672;2022-12-18T02:50:16;99262.03;;;21.41;21.70
62524;BME280;53689;56.878;60.672;2022-12-18T02:52:56;99266.59;;;21.41;21.57
62524;BME280;53689;56.878;60.672;2022-12-18T02:55:39;99278.19;;;21.41;21.04
62524;BME280;53689;56.878;60.672;2022-12-18T02:58:17;99271.47;;;21.37;21.63
62524;BME280;53689;56.878;60.672;2022-12-18T03:00:56;99284.09;;;21.37;20.99
62524;BME280;53689;56.878;60.672;2022-12-18T03:03:26;99279.22;;;21.32;20.95
62524;BME280;53689;56.878;60.672;2022-12-18T03:05:58;99272.66;;;21.34;20.93
62524;BME280;53689;56.878;60.672;2022-12-18T03:08:29;99264.44;;;21.28;20.91
62524;BME280;53689;56.878;60.672;2022-12-18T03:11:01;99259.53;;;21.40;21.17
62524;BME280;53689;56.878;60.672;2022-12-18T03:13:36;99254.97;;;21.32;21.17
62524;BME280;53689;56.878;60.672;2022-12-18T03:16:09;99269.31;;;21.32;21.06
62524;BME280;53689;56.878;60.672;2022-12-18T03:18:41;99267.47;;;21.25;22.11
62524;BME280;53689;56.878;60.672;2022-12-18T03:21:12;99257.38;;;21.27;20.54
62524;BME280;53689;56.878;60.672;2022-12-18T03:23:47;99229.28;;;21.21;20.96
62524;BME280;53689;56.878;60.672;2022-12-18T03:26:20;99228.75;;;21.26;21.33
62524;BME280;53689;56.878;60.672;2022-12-18T03:28:57;99228.75;;;21.26;20.94
62524;BME280;53689;56.878;60.672;2022-12-18T03:31:29;99225.56;;;21.22;20.26
62524;BME280;53689;56.878;60.672;2022-12-18T03:34:01;99228.94;;;21.16;21.89
62524;BME280;53689;56.878;60.672;2022-12-18T03:36:38;99231.59;;;21.32;21.14
62524;BME280;53689;56.878;60.672;2022-12-18T03:39:07;99235.16;;;21.25;21.01
62524;BME280;53689;56.878;60.672;2022-12-18T03:41:43;99235.34;;;21.15;20.65
62524;BME280;53689;56.878;60.672;2022-12-18T03:44:26;99227.75;;;21.27;20.88
62524;BME280;53689;56.878;60.672;2022-12-18T03:47:03;99221.47;;;21.34;20.77
62524;BME280;53689;56.878;60.672;2022-12-18T03:49:38;99227.38;;;21.30;20.50
62524;BME280;53689;56.878;60.672;2022-12-18T03:52:12;99224.66;;;21.38;20.96
62524;BME280;53689;56.878;60.672;2022-12-18T03:54:41;99227.19;;;21.40;21.15
62524;BME280;53689;56.878;60.672;2022-12-18T03:57:17;99223.81;;;21.38;21.03
62524;BME280;53689;56.878;60.672;2022-12-18T03:59:51;99221.31;;;21.36;21.30
62524;BME280;53689;56.878;60.672;2022-12-18T04:02:24;99243.53;;;21.38;20.43
62524;BME280;53689;56.878;60.672;2022-12-18T04:04:53;99251.75;;;21.45;20.57
62524;BME280;53689;56.878;60.672;2022-12-18T04:07:23;99247.00;;;21.55;21.26
62524;BME280;53689;56.878;60.672;2022-12-18T04:09:55;99235.09;;;21.41;20.98
62524;BME280;53689;56.878;60.672;2022-12-18T04:12:24;99227.38;;;21.38;20.77
62524;BME280;53689;56.878;60.672;2022-12-18T04:14:53;99229.53;;;21.43;21.15
62524;BME280;53689;56.878;60.672;2022-12-18T04:17:21;99246.88;;;21.40;21.43
62524;BME280;53689;56.878;60.672;2022-12-18T04:19:49;99227.66;;;21.43;20.78
62524;BME280;53689;56.878;60.672;2022-12-18T04:22:17;99211.66;;;21.50;20.77
62524;BME280;53689;56.878;60.672;2022-12-18T04:24:50;99220.78;;;21.49;20.97
62524;BME280;53689;56.878;60.672;2022-12-18T04:27:28;99227.47;;;21.53;21.06
62524;BME280;53689;56.878;60.672;2022-12-18T04:30:00;99236.75;;;21.51;20.79
62524;BME280;53689;56.878;60.672;2022-12-18T04:32:29;99234.56;;;21.46;20.67
62524;BME280;53689;56.878;60.672;2022-12-18T04:34:59;99241.44;;;21.57;20.49
62524;BME280;53689;56.878;60.672;2022-12-18T04:37:27;99253.25;;;21.56;20.79
62524;BME280;53689;56.878;60.672;2022-12-18T04:39:55;99245.31;;;21.54;21.53
62524;BME280;53689;56.878;60.672;2022-12-18T04:42:31;99246.19;;;21.55;20.28
62524;BME280;53689;56.878;60.672;2022-12-18T04:45:00;99235.19;;;21.56;20.99
62524;BME280;53689;56.878;60.672;2022-12-18T04:47:27;99232.22;;;21.51;19.96
62524;BME280;53689;56.878;60.672;2022-12-18T04:49:55;99226.09;;;21.57;20.77
62524;BME280;53689;56.878;60.672;2022-12-18T04:52:23;99215.81;;;21.61;21.07
62524;BME280;53689;56.878;60.672;2022-12-18T04:54:50;99215.53;;;21.56;20.50
62524;BME280;53689;56.878;60.672;2022-12-18T04:57:18;99222.09;;;21.53;20.83
62524;BME280;53689;56.878;60.672;2022-12-18T04:59:45;99208.59;;;21.61;21.02
62524;BME280;53689;56.878;60.672;2022-12-18T05:02:14;99210.63;;;21.59;21.20
62524;BME280;53689;56.878;60.672;2022-12-18T05:04:42;99203.84;;;21.63;21.36
62524;BME280;53689;56.878;60.672;2022-12-18T05:07:09;99196.63;;;21.64;20.57
62524;BME280;53689;56.878;60.672;2022-12-18T05:09:37;99195.41;;;21.67;21.09
62524;BME280;53689;56.878;60.672;2022-12-18T05:12:05;99194.09;;;21.62;20.47
62524;BME280;53689;56.878;60.672;2022-12-18T05:14:32;99186.38;;;21.68;20.53
62524;BME280;53689;56.878;60.672;2022-12-18T05:17:00;99181.28;;;21.73;20.99
62524;BME280;53689;56.878;60.672;2022-12-18T05:19:29;99181.59;;;21.78;20.86
62524;BME280;53689;56.878;60.672;2022-12-18T05:21:56;99168.13;;;21.78;20.81
62524;BME280;53689;56.878;60.672;2022-12-18T05:24:24;99165.72;;;21.83;21.21
62524;BME280;53689;56.878;60.672;2022-12-18T05:26:52;99156.44;;;21.86;21.35
62524;BME280;53689;56.878;60.672;2022-12-18T05:29:19;99154.28;;;21.81;20.90
62524;BME280;53689;56.878;60.672;2022-12-18T05:31:46;99154.75;;;21.85;21.06
62524;BME280;53689;56.878;60.672;2022-12-18T05:34:14;99147.88;;;21.82;20.80
62524;BME280;53689;56.878;60.672;2022-12-18T05:36:43;99155.59;;;21.85;21.06
62524;BME280;53689;56.878;60.672;2022-12-18T05:39:11;99152.06;;;21.85;21.30
62524;BME280;53689;56.878;60.672;2022-12-18T05:41:39;99142.34;;;21.75;20.10
62524;BME280;53689;56.878;60.672;2022-12-18T05:44:07;99135.91;;;21.85;20.57
62524;BME280;53689;56.878;60.672;2022-12-18T05:46:36;99134.38;;;21.82;20.68
62524;BME280;53689;56.878;60.672;2022-12-18T05:49:04;99121.56;;;21.84;20.83
62524;BME280;53689;56.878;60.672;2022-12-18T05:51:32;99117.31;;;21.90;20.85
62524;BME280;53689;56.878;60.672;2022-12-18T05:54:02;99112.66;;;21.84;20.88
62524;BME280;53689;56.878;60.672;2022-12-18T05:56:32;99103.22;;;21.80;20.85
62524;BME280;53689;56.878;60.672;2022-12-18T05:59:00;99107.22;;;21.92;20.79
62524;BME280;53689;56.878;60.672;2022-12-18T06:01:29;99099.66;;;21.87;20.90
62524;BME280;53689;56.878;60.672;2022-12-18T06:03:57;99102.47;;;21.94;20.91
62524;BME280;53689;56.878;60.672;2022-12-18T06:06:26;99089.34;;;21.91;20.79
62524;BME280;53689;56.878;60.672;2022-12-18T06:08:55;99080.69;;;21.96;20.40
62524;BME280;53689;56.878;60.672;2022-12-18T06:11:26;99073.63;;;21.95;21.43
62524;BME280;53689;56.878;60.672;2022-12-18T06:13:55;99070.78;;;21.96;21.04
62524;BME280;53689;56.878;60.672;2022-12-18T06:16:25;99064.34;;;21.97;20.42
62524;BME280;53689;56.878;60.672;2022-12-18T06:18:53;99060.69;;;21.90;21.17
62524;BME280;53689;56.878;60.672;2022-12-18T06:21:22;99055.31;;;21.90;20.34
62524;BME280;53689;56.878;60.672;2022-12-18T06:23:51;99059.03;;;21.89;20.89
62524;BME280;53689;56.878;60.672;2022-12-18T06:26:19;99061.00;;;21.95;20.98
62524;BME280;53689;56.878;60.672;2022-12-18T06:28:55;99069.75;;;21.97;21.12
62524;BME280;53689;56.878;60.672;2022-12-18T06:31:24;99063.34;;;21.98;21.50
62524;BME280;53689;56.878;60.672;2022-12-18T06:33:51;99063.16;;;22.00;20.71
62524;BME280;53689;56.878;60.672;2022-12-18T06:36:19;99061.50;;;21.99;21.22
62524;BME280;53689;56.878;60.672;2022-12-18T06:38:46;99062.31;;;21.99;20.88
62524;BME280;53689;56.878;60.672;2022-12-18T06:41:16;99062.31;;;21.99;21.02
62524;BME280;53689;56.878;60.672;2022-12-18T06:43:45;99057.78;;;22.00;20.88
62524;BME280;53689;56.878;60.672;2022-12-18T06:46:15;99056.09;;;21.99;21.00
62524;BME280;53689;56.878;60.672;2022-12-18T06:48:45;99058.41;;;22.02;21.34
62524;BME280;53689;56.878;60.672;2022-12-18T06:51:16;99054.69;;;22.03;20.93
62524;BME280;53689;56.878;60.672;2022-12-18T06:53:45;99055.91;;;22.00;21.00
62524;BME280;53689;56.878;60.672;2022-12-18T06:56:13;99051.84;;;22.04;21.11
62524;BME280;53689;56.878;60.672;2022-12-18T06:58:41;99044.13;;;22.01;20.31
62524;BME280;53689;56.878;60.672;2022-12-18T07:01:10;99042.25;;;22.02;20.51
62524;BME280;53689;56.878;60.672;2022-12-18T07:03:41;99038.34;;;22.04;21.06
62524;BME280;53689;56.878;60.672;2022-12-18T07:06:14;99028.22;;;22.07;21.11
62524;BME280;53689;56.878;60.672;2022-12-18T07:08:43;99023.19;;;22.03;21.15
62524;BME280;53689;56.878;60.672;2022-12-18T07:11:11;99014.09;;;22.04;20.60
62524;BME280;53689;56.878;60.672;2022-12-18T07:13:39;99004.50;;;22.02;21.20
62524;BME280;53689;56.878;60.672;2022-12-18T07:16:09;99008.22;;;22.01;20.35
62524;BME280;53689;56.878;60.672;2022-12-18T07:18:50;98997.06;;;22.04;20.46
62524;BME280;53689;56.878;60.672;2022-12-18T07:21:19;98992.50;;;22.04;20.87
62524;BME280;53689;56.878;60.672;2022-12-18T07:23:47;98979.41;;;22.01;20.96
62524;BME280;53689;56.878;60.672;2022-12-18T07:26:16;98970.09;;;22.04;20.82
62524;BME280;53689;56.878;60.672;2022-12-18T07:28:44;98975.84;;;22.01;20.96
62524;BME280;53689;56.878;60.672;2022-12-18T07:31:13;98961.34;;;22.02;20.79
62524;BME280;53689;56.878;60.672;2022-12-18T07:33:41;98974.66;;;22.03;19.88
62524;BME280;53689;56.878;60.672;2022-12-18T07:36:11;98975.97;;;22.08;20.66
62524;BME280;53689;56.878;60.672;2022-12-18T07:38:39;98977.94;;;22.14;21.02
62524;BME280;53689;56.878;60.672;2022-12-18T07:41:08;98964.16;;;22.09;20.74
62524;BME280;53689;56.878;60.672;2022-12-18T07:43:38;98975.97;;;22.08;20.68
62524;BME280;53689;56.878;60.672;2022-12-18T07:46:09;98970.22;;;22.11;20.91
62524;BME280;53689;56.878;60.672;2022-12-18T07:48:40;98977.63;;;22.09;20.53
62524;BME280;53689;56.878;60.672;2022-12-18T07:51:11;98970.47;;;22.16;20.77
62524;BME280;53689;56.878;60.672;2022-12-18T07:53:40;98966.50;;;22.12;20.98
62524;BME280;53689;56.878;60.672;2022-12-18T07:56:11;98965.09;;;22.16;20.83
62524;BME280;53689;56.878;60.672;2022-12-18T07:58:58;98967.78;;;22.16;20.89
62524;BME280;53689;56.878;60.672;2022-12-18T08:01:26;98965.81;;;22.10;20.59
62524;BME280;53689;56.878;60.672;2022-12-18T08:03:54;98963.31;;;22.08;20.34
62524;BME280;53689;56.878;60.672;2022-12-18T08:06:23;98968.16;;;22.13;20.67
62524;BME280;53689;56.878;60.672;2022-12-18T08:08:52;98969.38;;;22.10;20.35
62524;BME280;53689;56.878;60.672;2022-12-18T08:11:19;98973.09;;;22.09;21.16
62524;BME280;53689;56.878;60.672;2022-12-18T08:13:47;98970.00;;;22.12;20.46
62524;BME280;53689;56.878;60.672;2022-12-18T08:16:16;98965.81;;;22.10;20.34
62524;BME280;53689;56.878;60.672;2022-12-18T08:18:44;98963.31;;;22.08;20.23
62524;BME280;53689;56.878;60.672;2022-12-18T08:21:13;98948.53;;;22.04;21.14
62524;BME280;53689;56.878;60.672;2022-12-18T08:23:42;98949.00;;;22.08;20.47
62524;BME280;53689;56.878;60.672;2022-12-18T08:26:10;98949.28;;;22.13;21.40
62524;BME280;53689;56.878;60.672;2022-12-18T08:28:38;98937.84;;;22.11;20.65
62524;BME280;53689;56.878;60.672;2022-12-18T08:31:06;98931.31;;;22.05;20.16
62524;BME280;53689;56.878;60.672;2022-12-18T08:33:35;98932.88;;;21.99;20.68
62524;BME280;53689;56.878;60.672;2022-12-18T08:36:05;98925.34;;;21.80;19.95
62524;BME280;53689;56.878;60.672;2022-12-18T08:38:33;98928.34;;;21.85;21.17
62524;BME280;53689;56.878;60.672;2022-12-18T08:41:03;98921.53;;;21.89;19.76
62524;BME280;53689;56.878;60.672;2022-12-18T08:43:31;98910.75;;;21.89;20.00
62524;BME280;53689;56.878;60.672;2022-12-18T08:45:58;98891.53;;;21.92;20.12
62524;BME280;53689;56.878;60.672;2022-12-18T08:48:26;98889.75;;;21.99;20.62
62524;BME280;53689;56.878;60.672;2022-12-18T08:50:54;98887.53;;;22.03;21.06
62524;BME280;53689;56.878;60.672;2022-12-18T08:53:25;98882.78;;;22.05;20.75
62524;BME280;53689;56.878;60.672;2022-12-18T08:56:04;98869.28;;;22.05;19.08
62524;BME280;53689;56.878;60.672;2022-12-18T08:58:32;98886.16;;;22.07;20.37
62524;BME280;53689;56.878;60.672;2022-12-18T09:01:00;98881.78;;;22.06;20.03
62524;BME280;53689;56.878;60.672;2022-12-18T09:03:28;98871.34;;;22.03;20.69
62524;BME280;53689;56.878;60.672;2022-12-18T09:05:56;98864.19;;;22.10;20.66
62524;BME280;53689;56.878;60.672;2022-12-18T09:08:23;98858.06;;;22.01;19.55
62524;BME280;53689;56.878;60.672;2022-12-18T09:10:51;98845.50;;;22.09;20.75
62524;BME280;53689;56.878;60.672;2022-12-18T09:13:20;98848.75;;;22.04;20.80
62524;BME280;53689;56.878;60.672;2022-12-18T09:15:49;98856.75;;;21.97;20.03
62524;BME280;53689;56.878;60.672;2022-12-18T09:18:18;98846.72;;;22.06;19.73
62524;BME280;53689;56.878;60.672;2022-12-18T09:20:46;98848.47;;;22.14;21.09
62524;BME280;53689;56.878;60.672;2022-12-18T09:23:14;98847.06;;;22.18;21.52
62524;BME280;53689;56.878;60.672;2022-12-18T09:25:41;98847.00;;;22.11;19.31
62524;BME280;53689;56.878;60.672;2022-12-18T09:28:12;98847.28;;;22.16;21.05
62524;BME280;53689;56.878;60.672;2022-12-18T09:30:43;98848.75;;;22.19;20.62
62524;BME280;53689;56.878;60.672;2022-12-18T09:33:11;98847.28;;;22.16;21.08
62524;BME280;53689;56.878;60.672;2022-12-18T09:35:42;98839.44;;;22.22;20.83
62524;BME280;53689;56.878;60.672;2022-12-18T09:38:12;98835.53;;;22.24;20.69
62524;BME280;53689;56.878;60.672;2022-12-18T09:40:42;98840.09;;;22.24;20.54
62524;BME280;53689;56.878;60.672;2022-12-18T09:43:15;98830.31;;;22.23;20.86
62524;BME280;53689;56.878;60.672;2022-12-18T09:45:47;98824.75;;;22.24;20.54
62524;BME280;53689;56.878;60.672;2022-12-18T09:48:21;98822.06;;;22.24;21.07
62524;BME280;53689;56.878;60.672;2022-12-18T09:50:50;98818.16;;;22.27;21.00
62524;BME280;53689;56.878;60.672;2022-12-18T09:53:20;98815.25;;;22.28;20.59
62524;BME280;53689;56.878;60.672;2022-12-18T09:55:51;98808.66;;;22.31;21.19
62524;BME280;53689;56.878;60.672;2022-12-18T09:58:26;98794.69;;;22.27;21.19
62524;BME280;53689;56.878;60.672;2022-12-18T10:00:58;98791.44;;;22.32;21.06
62524;BME280;53689;56.878;60.672;2022-12-18T10:03:26;98777.47;;;22.28;21.22
62524;BME280;53689;56.878;60.672;2022-12-18T10:06:01;98772.56;;;22.32;21.32
62524;BME280;53689;56.878;60.672;2022-12-18T10:08:37;98757.97;;;22.26;21.02
62524;BME280;53689;56.878;60.672;2022-12-18T10:11:25;98761.59;;;22.34;21.32
62524;BME280;53689;56.878;60.672;2022-12-18T10:13:58;98748.94;;;22.34;20.59
62524;BME280;53689;56.878;60.672;2022-12-18T10:16:35;98746.81;;;22.29;21.57
62524;BME280;53689;56.878;60.672;2022-12-18T10:19:22;98744.75;;;22.31;21.13
62524;BME280;53689;56.878;60.672;2022-12-18T10:21:57;98743.72;;;22.33;21.13
62524;BME280;53689;56.878;60.672;2022-12-18T10:24:33;98754.34;;;22.34;21.63
62524;BME280;53689;56.878;60.672;2022-12-18T10:27:12;98743.09;;;22.30;21.56
62524;BME280;53689;56.878;60.672;2022-12-18T10:29:44;98741.84;;;22.33;20.72
62524;BME280;53689;56.878;60.672;2022-12-18T10:32:16;98743.34;;;22.36;20.97
62524;BME280;53689;56.878;60.672;2022-12-18T10:34:46;98738.56;;;22.38;21.32
62524;BME280;53689;56.878;60.672;2022-12-18T10:37:16;98744.19;;;22.36;21.70
62524;BME280;53689;56.878;60.672;2022-12-18T10:39:45;98738.97;;;22.35;21.41
62524;BME280;53689;56.878;60.672;2022-12-18T10:42:18;98744.63;;;22.40;21.36
62524;BME280;53689;56.878;60.672;2022-12-18T10:44:45;98733.19;;;22.38;21.62
62524;BME280;53689;56.878;60.672;2022-12-18T10:47:18;98731.97;;;22.40;21.57
62524;BME280;53689;56.878;60.672;2022-12-18T10:49:50;98725.75;;;22.40;21.14
62524;BME280;53689;56.878;60.672;2022-12-18T10:52:21;98717.00;;;22.38;21.23
62524;BME280;53689;56.878;60.672;2022-12-18T10:54:52;98712.63;;;22.37;21.50
62524;BME280;53689;56.878;60.672;2022-12-18T10:57:38;98696.25;;;22.38;21.34
62524;BME280;53689;56.878;60.672;2022-12-18T11:00:27;98693.38;;;22.40;21.49
62524;BME280;53689;56.878;60.672;2022-12-18T11:02:57;98694.19;;;22.40;21.63
62524;BME280;53689;56.878;60.672;2022-12-18T11:05:27;98689.66;;;22.41;21.36
62524;BME280;53689;56.878;60.672;2022-12-18T11:07:56;98692.34;;;22.41;21.47
62524;BME280;53689;56.878;60.672;2022-12-18T11:10:28;98685.06;;;22.41;21.42
62524;BME280;53689;56.878;60.672;2022-12-18T11:12:56;98678.22;;;22.39;21.56
62524;BME280;53689;56.878;60.672;2022-12-18T11:15:36;98681.56;;;22.41;21.69
62524;BME280;53689;56.878;60.672;2022-12-18T11:18:17;98670.13;;;22.39;21.27
62524;BME280;53689;56.878;60.672;2022-12-18T11:20:51;98675.13;;;22.42;21.68
62524;BME280;53689;56.878;60.672;2022-12-18T11:23:25;98665.38;;;22.41;21.37
62524;BME280;53689;56.878;60.672;2022-12-18T11:25:56;98648.97;;;22.42;21.48
62524;BME280;53689;56.878;60.672;2022-12-18T11:28:29;98638.63;;;22.46;21.54
62524;BME280;53689;56.878;60.672;2022-12-18T11:31:21;98636.34;;;22.43;21.18
62524;BME280;53689;56.878;60.672;2022-12-18T11:34:09;98622.00;;;22.42;21.15
62524;BME280;53689;56.878;60.672;2022-12-18T11:36:55;98613.53;;;22.45;20.77
62524;BME280;53689;56.878;60.672;2022-12-18T11:39:32;98622.44;;;22.46;21.19
62524;BME280;53689;56.878;60.672;2022-12-18T11:42:08;98602.53;;;22.47;21.57
62524;BME280;53689;56.878;60.672;2022-12-18T11:44:47;98589.88;;;22.48;21.89
62524;BME280;53689;56.878;60.672;2022-12-18T11:47:24;98590.72;;;22.48;21.48
62524;BME280;53689;56.878;60.672;2022-12-18T11:49:55;98578.47;;;22.45;21.33
62524;BME280;53689;56.878;60.672;2022-12-18T11:52:28;98570.63;;;22.51;21.61
62524;BME280;53689;56.878;60.672;2022-12-18T11:55:00;98560.06;;;22.49;21.90
62524;BME280;53689;56.878;60.672;2022-12-18T11:57:35;98552.78;;;22.50;21.03
62524;BME280;53689;56.878;60.672;2022-12-18T12:00:12;98545.53;;;22.50;21.77
62524;BME280;53689;56.878;60.672;2022-12-18T12:02:53;98537.59;;;22.49;21.83
62524;BME280;53689;56.878;60.672;2022-12-18T12:05:37;98539.09;;;22.51;21.62
62524;BME280;53689;56.878;60.672;2022-12-18T12:08:13;98532.78;;;22.44;21.50
62524;BME280;53689;56.878;60.672;2022-12-18T12:10:52;98530.38;;;22.49;21.41
62524;BME280;53689;56.878;60.672;2022-12-18T12:13:40;98513.16;;;22.50;21.84
62524;BME280;53689;56.878;60.672;2022-12-18T12:16:15;98514.63;;;22.53;22.01
62524;BME280;53689;56.878;60.672;2022-12-18T12:19:02;98511.94;;;22.53;21.96
62524;BME280;53689;56.878;60.672;2022-12-18T12:21:39;98503.63;;;22.54;21.96
62524;BME280;53689;56.878;60.672;2022-12-18T12:24:19;98498.22;;;22.54;21.83
62524;BME280;53689;56.878;60.672;2022-12-18T12:26:58;98485.94;;;22.52;22.20
62524;BME280;53689;56.878;60.672;2022-12-18T12:29:39;98488.88;;;22.50;21.14
62524;BME280;53689;56.878;60.672;2022-12-18T12:32:20;98472.22;;;22.47;21.43
62524;BME280;53689;56.878;60.672;2022-12-18T12:34:59;98474.78;;;22.55;21.81
62524;BME280;53689;56.878;60.672;2022-12-18T12:37:42;98461.06;;;22.56;22.06
62524;BME280;53689;56.878;60.672;2022-12-18T12:40:20;98457.38;;;22.57;21.87
62524;BME280;53689;56.878;60.672;2022-12-18T12:43:24;98450.94;;;22.58;22.46
62524;BME280;53689;56.878;60.672;2022-12-18T12:46:05;98440.34;;;22.57;22.51
62524;BME280;53689;56.878;60.672;2022-12-18T12:48:38;98434.94;;;22.57;21.80
62524;BME280;53689;56.878;60.672;2022-12-18T12:51:13;98422.47;;;22.56;22.09
62524;BME280;53689;56.878;60.672;2022-12-18T12:53:45;98411.50;;;22.57;22.02
62524;BME280;53689;56.878;60.672;2022-12-18T12:56:13;98407.75;;;22.58;22.26
62524;BME280;53689;56.878;60.672;2022-12-18T12:58:46;98393.84;;;22.55;22.08
62524;BME280;53689;56.878;60.672;2022-12-18T13:01:26;98378.91;;;22.59;22.24
62524;BME280;53689;56.878;60.672;2022-12-18T13:04:06;98381.81;;;22.57;22.01
62524;BME280;53689;56.878;60.672;2022-12-18T13:06:42;98375.56;;;22.57;22.14
62524;BME280;53689;56.878;60.672;2022-12-18T13:09:14;98380.56;;;22.60;22.18
62524;BME280;53689;56.878;60.672;2022-12-18T13:11:45;98362.72;;;22.59;22.28
62524;BME280;53689;56.878;60.672;2022-12-18T13:14:21;98363.94;;;22.56;21.77